Time;durP1;ratioP1;P1;durP2;ratioP2;P2;SDS_P1;SDS_P2;PMS_P1;PMS_P2;Temp;Humidity;BMP_temperature;BMP_pressure;BME280_temperature;BME280_humidity;BME280_pressure;Samples;Min_cycle;Max_cycle;Signal;HPM_P1;HPM_P2
2023/03/24 00:00:22;;;;;;;4.85;2.45;;;;;;;12.78;84.00;99588.75;3610360;39;20417;-71
2023/03/24 00:02:50;;;;;;;4.22;2.53;;;;;;;13.06;84.12;99623.97;3611927;39;20107;-70
2023/03/24 00:05:19;;;;;;;5.05;2.55;;;;;;;13.06;84.20;99618.59;3608121;39;20115;-69
2023/03/24 00:07:46;;;;;;;5.70;2.60;;;;;;;13.09;83.47;99614.75;3613676;39;20057;-70
2023/03/24 00:10:16;;;;;;;3.95;2.65;;;;;;;13.11;83.60;99621.72;3608830;39;20084;-70
2023/03/24 00:12:47;;;;;;;4.53;2.72;;;;;;;13.15;82.97;99606.94;3610514;39;20065;-70
2023/03/24 00:15:20;;;;;;;3.88;2.47;;;;;;;13.20;83.18;99604.69;3610030;39;20046;-72
2023/03/24 00:17:51;;;;;;;2.42;2.22;;;;;;;13.22;82.86;99596.44;3609750;39;20119;-70
2023/03/24 00:20:21;;;;;;;4.00;3.10;;;;;;;13.27;82.30;99615.81;3608263;39;20054;-71
2023/03/24 00:22:55;;;;;;;4.28;2.13;;;;;;;13.29;82.39;99602.16;3612174;39;20059;-70
2023/03/24 00:25:26;;;;;;;3.30;2.78;;;;;;;13.15;81.95;99563.78;3612545;39;20051;-74
2023/03/24 00:27:55;;;;;;;4.25;2.22;;;;;;;13.38;81.58;99606.69;3611591;39;20054;-72
2023/03/24 00:30:21;;;;;;;3.35;2.30;;;;;;;13.45;81.30;99607.84;3611439;39;21872;-71
2023/03/24 00:32:46;;;;;;;4.85;2.67;;;;;;;13.47;81.37;99595.88;3610448;39;20084;-72
2023/03/24 00:35:16;;;;;;;4.18;2.40;;;;;;;13.50;81.19;99602.84;3610797;39;20042;-70
2023/03/24 00:37:43;;;;;;;1.98;1.88;;;;;;;13.46;80.51;99575.28;3610593;39;20053;-72
2023/03/24 00:40:20;;;;;;;4.20;2.60;;;;;;;13.38;80.74;99550.88;3607854;39;20058;-72
2023/03/24 00:42:48;;;;;;;3.67;2.75;;;;;;;13.61;80.23;99586.50;3615329;39;20058;-71
2023/03/24 00:45:21;;;;;;;2.05;1.77;;;;;;;13.65;80.09;99571.72;3609984;39;20054;-71
2023/03/24 00:47:48;;;;;;;2.53;2.00;;;;;;;13.48;80.04;99540.06;3599280;39;20196;-71
2023/03/24 00:50:19;;;;;;;3.55;2.13;;;;;;;13.44;80.10;99525.13;3609085;39;20065;-71
2023/03/24 00:52:46;;;;;;;2.33;1.90;;;;;;;13.72;80.16;99566.56;3603570;39;20427;-70
2023/03/24 00:55:14;;;;;;;3.67;1.95;;;;;;;13.78;79.69;99552.50;3608616;39;20379;-70
2023/03/24 00:57:49;;;;;;;2.33;1.80;;;;;;;13.63;79.32;99544.00;3612257;39;20043;-70
2023/03/24 01:00:22;;;;;;;2.20;1.83;;;;;;;13.80;79.74;99553.22;3607354;39;21253;-69
2023/03/24 01:02:54;;;;;;;3.58;1.92;;;;;;;13.82;79.66;99553.88;3610093;39;20055;-69
2023/03/24 01:05:31;;;;;;;3.50;2.08;;;;;;;13.81;80.21;99556.75;3610894;39;20067;-69
2023/03/24 01:08:02;;;;;;;2.40;1.75;;;;;;;13.57;80.25;99512.16;3611516;39;20066;-69
2023/03/24 01:10:30;;;;;;;2.53;1.75;;;;;;;13.77;80.56;99550.78;3612105;39;20068;-69
2023/03/24 01:12:59;;;;;;;1.85;1.75;;;;;;;13.76;80.45;99543.66;3614015;39;20351;-69
2023/03/24 01:15:32;;;;;;;3.72;2.10;;;;;;;13.79;80.49;99558.75;3614027;39;20420;-69
2023/03/24 01:18:01;;;;;;;;;;;;;;;13.71;80.73;99548.69;3611942;39;20095;-70
2023/03/24 01:20:31;;;;;;;2.75;2.17;;;;;;;13.62;81.50;99544.16;3608770;39;20261;-71
2023/03/24 01:22:59;;;;;;;2.25;1.90;;;;;;;13.57;82.22;99530.22;3608241;39;20034;-70
2023/03/24 01:25:26;;;;;;;2.17;1.98;;;;;;;13.48;83.14;99515.78;3612590;39;20062;-71
2023/03/24 01:27:52;;;;;;;3.22;1.80;;;;;;;13.47;83.59;99531.09;3611839;39;20055;-70
2023/03/24 01:30:23;;;;;;;2.40;2.10;;;;;;;13.43;83.57;99523.44;3608736;39;20076;-68
2023/03/24 01:32:50;;;;;;;3.95;2.45;;;;;;;13.38;84.78;99517.63;3613576;39;20049;-69
2023/03/24 01:35:17;;;;;;;3.22;1.77;;;;;;;13.35;85.23;99509.81;3612179;39;20059;-69
2023/03/24 01:37:43;;;;;;;3.33;2.30;;;;;;;13.37;85.17;99508.66;3611003;39;20054;-71
2023/03/24 01:40:17;;;;;;;2.67;1.95;;;;;;;13.35;85.49;99509.81;3609221;39;20427;-69
2023/03/24 01:42:43;;;;;;;2.33;2.13;;;;;;;13.29;85.80;99505.00;3608202;39;20057;-71
2023/03/24 01:46:05;;;;;;;3.38;1.95;;;;;;;13.33;85.81;99512.66;3606733;39;20055;-70
2023/03/24 01:48:55;;;;;;;2.60;2.10;;;;;;;13.33;85.79;99506.44;3600874;39;20063;-71
2023/03/24 01:51:37;;;;;;;3.92;2.05;;;;;;;13.32;85.70;99505.59;3607310;39;20338;-73
2023/03/24 01:54:32;;;;;;;5.68;2.35;;;;;;;13.30;85.93;99507.56;3608502;39;20047;-70
2023/03/24 01:57:13;;;;;;;2.40;1.83;;;;;;;13.31;86.43;99501.16;3608940;39;20055;-69
2023/03/24 01:59:47;;;;;;;3.03;2.25;;;;;;;13.27;86.63;99496.22;3609991;39;20385;-70
2023/03/24 02:02:15;;;;;;;4.30;2.45;;;;;;;13.28;86.46;99487.09;3611375;39;20411;-70
2023/03/24 02:04:52;;;;;;;2.45;2.20;;;;;;;13.31;86.77;99486.81;3614981;39;20046;-70
2023/03/24 02:07:41;;;;;;;2.30;2.10;;;;;;;13.31;86.66;99493.06;3609371;39;20062;-70
2023/03/24 02:10:14;;;;;;;2.30;2.03;;;;;;;13.30;86.99;99495.91;3609204;39;20090;-71
2023/03/24 02:12:42;;;;;;;6.90;2.40;;;;;;;13.30;87.13;99479.72;3613377;39;20059;-70
2023/03/24 02:15:11;;;;;;;3.05;2.45;;;;;;;13.26;87.24;99472.91;3609695;39;20066;-70
2023/03/24 02:18:06;;;;;;;3.05;2.40;;;;;;;13.31;87.50;99492.22;3609724;39;20077;-70
2023/03/24 02:20:48;;;;;;;2.70;2.45;;;;;;;13.29;87.79;99494.19;3599566;39;20055;-70
2023/03/24 02:23:38;;;;;;;3.03;2.40;;;;;;;13.27;88.26;99488.13;3611245;39;20070;-70
2023/03/24 02:26:26;;;;;;;3.50;2.28;;;;;;;13.22;88.38;99488.50;3606922;39;20059;-69
2023/03/24 02:29:19;;;;;;;4.43;2.58;;;;;;;13.23;88.41;99492.91;3609305;39;20123;-70
2023/03/24 02:32:22;;;;;;;2.80;2.37;;;;;;;13.23;88.60;99491.06;3607331;39;20061;-68
2023/03/24 02:35:06;;;;;;;4.03;2.60;;;;;;;13.23;88.21;99487.53;3609382;39;20054;-68
2023/03/24 02:38:08;;;;;;;4.07;2.78;;;;;;;13.24;88.62;99481.13;3604258;39;20040;-67
2023/03/24 02:41:17;;;;;;;3.42;2.60;;;;;;;13.17;88.96;99480.84;3610072;39;20063;-68
2023/03/24 02:44:22;;;;;;;4.32;2.60;;;;;;;12.79;88.70;99411.63;3607864;39;20366;-68
2023/03/24 02:47:37;;;;;;;2.70;2.50;;;;;;;13.21;89.14;99492.19;3607652;39;20055;-68
2023/03/24 02:50:28;;;;;;;2.80;2.47;;;;;;;13.24;88.66;99497.31;3609057;39;20089;-68
2023/03/24 02:53:19;;;;;;;2.80;2.53;;;;;;;13.25;88.65;99496.34;3611348;39;20085;-68
2023/03/24 02:56:14;;;;;;;2.55;2.30;;;;;;;13.29;88.69;99499.59;3608160;39;20062;-68
2023/03/24 02:58:58;;;;;;;2.97;2.42;;;;;;;13.29;88.41;99502.28;3598688;39;20333;-68
2023/03/24 03:01:34;;;;;;;2.40;2.20;;;;;;;13.24;88.07;99524.28;3605621;39;20051;-68
2023/03/24 03:04:18;;;;;;;4.65;2.35;;;;;;;13.32;87.47;99547.88;3606907;39;20053;-69
2023/03/24 03:06:52;;;;;;;;;;;;;;;13.35;87.06;99551.19;3614721;39;20058;-68
2023/03/24 03:09:22;;;;;;;2.42;2.22;;;;;;;13.34;87.02;99544.06;3609219;39;20199;-69
2023/03/24 03:11:56;;;;;;;2.78;2.30;;;;;;;13.32;86.24;99559.56;3609328;39;20054;-71
2023/03/24 03:14:49;;;;;;;3.90;2.22;;;;;;;13.30;84.91;99566.09;3608449;39;20064;-70
2023/03/24 03:17:24;;;;;;;3.22;2.10;;;;;;;13.28;83.08;99578.88;3608669;39;20521;-71
2023/03/24 03:20:06;;;;;;;2.00;1.80;;;;;;;13.20;81.13;99579.56;3606976;39;20059;-71
2023/03/24 03:22:45;;;;;;;2.55;1.80;;;;;;;12.82;80.15;99534.53;3609702;39;20059;-71
2023/03/24 03:25:19;;;;;;;2.75;1.52;;;;;;;13.09;80.15;99593.16;3610161;39;20058;-72
2023/03/24 03:27:47;;;;;;;1.85;1.73;;;;;;;12.81;79.71;99555.25;3607598;39;20054;-71
2023/03/24 03:30:36;;;;;;;1.85;1.48;;;;;;;12.86;78.63;99589.91;3605808;39;20709;-71
2023/03/24 03:33:17;;;;;;;2.75;1.58;;;;;;;12.71;76.75;99606.47;3609834;39;20120;-70
2023/03/24 03:36:02;;;;;;;3.25;1.58;;;;;;;12.62;76.78;99630.69;3612036;39;20093;-70
2023/03/24 03:38:50;;;;;;;2.05;1.15;;;;;;;12.54;76.39;99639.47;3610925;39;20063;-70
2023/03/24 03:41:19;;;;;;;1.98;0.82;;;;;;;12.40;76.56;99643.41;3608344;39;20348;-69
2023/03/24 03:43:48;;;;;;;2.40;1.23;;;;;;;12.41;76.87;99636.19;3610852;39;20372;-69
2023/03/24 03:46:16;;;;;;;4.05;1.55;;;;;;;12.39;77.67;99651.63;3610641;39;20113;-68
2023/03/24 03:48:44;;;;;;;3.88;1.48;;;;;;;12.36;78.59;99668.06;3606063;39;20063;-68
2023/03/24 03:51:12;;;;;;;2.72;2.17;;;;;;;12.28;77.12;99674.97;3609228;39;20124;-68
2023/03/24 03:53:57;;;;;;;5.45;2.40;;;;;;;12.15;74.83;99670.81;3608164;39;20055;-68
2023/03/24 03:56:28;;;;;;;6.10;2.85;;;;;;;12.00;73.90;99652.28;3610881;39;20051;-68
2023/03/24 03:58:53;;;;;;;5.50;2.80;;;;;;;11.93;73.50;99666.44;3608049;39;20051;-67
2023/03/24 04:01:24;;;;;;;4.05;2.50;;;;;;;11.83;73.36;99669.88;3605505;39;20151;-67
2023/03/24 04:03:58;;;;;;;5.25;2.83;;;;;;;11.84;73.69;99682.38;3610793;39;20063;-68
2023/03/24 04:06:43;;;;;;;3.67;2.45;;;;;;;11.77;74.21;99691.94;3608704;39;20051;-68
2023/03/24 04:10:01;;;;;;;4.35;2.03;;;;;;;11.68;75.28;99702.63;3608892;39;20050;-67
2023/03/24 04:13:01;;;;;;;4.63;2.17;;;;;;;11.63;75.50;99716.47;3598748;39;20078;-67
2023/03/24 04:15:44;;;;;;;4.55;1.98;;;;;;;11.61;76.42;99721.97;3606214;39;20442;-68
2023/03/24 04:18:26;;;;;;;;;;;;;;;11.55;76.61;99733.25;3611605;39;20059;-67
2023/03/24 04:21:47;;;;;;;5.57;1.92;;;;;;;11.52;76.50;99740.75;3611074;39;19939;-67
2023/03/24 04:24:50;;;;;;;6.10;1.75;;;;;;;11.42;75.89;99743.34;3612071;39;20051;-67
2023/03/24 04:27:55;;;;;;;3.08;1.52;;;;;;;11.46;75.36;99746.63;3610148;39;20115;-67
2023/03/24 04:30:46;;;;;;;6.85;2.10;;;;;;;11.40;75.19;99739.91;3612211;39;20310;-67
2023/03/24 04:33:27;;;;;;;4.78;1.75;;;;;;;11.37;75.04;99751.78;3615679;39;20113;-66
2023/03/24 04:36:26;;;;;;;5.95;1.40;;;;;;;11.37;74.82;99756.31;3612599;39;20047;-66
2023/03/24 04:38:56;;;;;;;6.38;1.85;;;;;;;11.34;74.99;99756.56;3602038;39;20043;-67
2023/03/24 04:41:28;;;;;;;6.28;2.05;;;;;;;11.37;75.44;99759.00;3614348;39;20096;-66
2023/03/24 04:43:58;;;;;;;6.65;2.00;;;;;;;11.25;75.74;99750.09;3609831;39;20419;-66
2023/03/24 04:46:24;;;;;;;7.13;1.70;;;;;;;11.27;75.49;99769.66;3596641;39;20082;-67
2023/03/24 04:48:50;;;;;;;5.97;2.15;;;;;;;11.25;75.24;99777.00;3609004;39;20055;-67
2023/03/24 04:51:20;;;;;;;9.00;2.20;;;;;;;11.20;75.81;99784.59;3608093;39;20143;-67
2023/03/24 04:53:46;;;;;;;6.50;2.40;;;;;;;11.19;75.42;99774.81;3608654;39;20046;-67
2023/03/24 04:56:33;;;;;;;11.00;2.60;;;;;;;11.19;75.28;99779.31;3609770;39;20063;-67
2023/03/24 04:58:59;;;;;;;8.27;2.58;;;;;;;11.18;74.67;99773.09;3608895;39;20051;-67
2023/03/24 05:01:29;;;;;;;9.35;3.22;;;;;;;11.10;74.81;99764.78;3607374;39;20318;-66
2023/03/24 05:03:58;;;;;;;8.75;2.33;;;;;;;11.17;74.77;99781.31;3604292;39;20051;-66
2023/03/24 05:06:25;;;;;;;8.13;2.33;;;;;;;11.11;74.97;99786.19;3608681;39;20127;-66
2023/03/24 05:08:51;;;;;;;6.68;2.63;;;;;;;11.11;75.08;99788.88;3606024;39;20055;-67
2023/03/24 05:11:20;;;;;;;10.00;2.50;;;;;;;11.10;74.96;99780.91;3604858;39;20058;-66
2023/03/24 05:13:46;;;;;;;6.38;2.45;;;;;;;11.07;75.39;99792.81;3606389;39;20070;-67
2023/03/24 05:16:13;;;;;;;12.52;2.63;;;;;;;11.05;75.37;99793.91;3609430;39;20057;-67
2023/03/24 05:18:39;;;;;;;4.75;2.47;;;;;;;10.95;75.50;99795.63;3607827;39;20377;-66
2023/03/24 05:21:05;;;;;;;8.30;2.50;;;;;;;10.83;75.30;99779.47;3597274;39;20066;-67
2023/03/24 05:23:31;;;;;;;8.15;2.20;;;;;;;10.94;75.67;99802.81;3594246;39;20078;-67
2023/03/24 05:25:56;;;;;;;8.80;2.15;;;;;;;10.95;75.47;99811.75;3604161;39;20393;-66
2023/03/24 05:28:22;;;;;;;6.78;2.50;;;;;;;10.88;75.24;99796.13;3608425;39;20057;-67
2023/03/24 05:30:48;;;;;;;9.52;2.28;;;;;;;10.99;74.59;99813.22;3606944;39;20155;-67
2023/03/24 05:33:14;;;;;;;7.75;2.17;;;;;;;11.00;75.22;99813.09;3609149;39;20062;-66
2023/03/24 05:35:39;;;;;;;13.77;2.65;;;;;;;11.04;74.94;99814.56;3606526;39;20058;-66
2023/03/24 05:38:05;;;;;;;9.20;2.40;;;;;;;11.06;74.23;99817.13;3606718;39;20061;-67
2023/03/24 05:40:30;;;;;;;6.47;1.88;;;;;;;11.07;74.41;99818.84;3607477;39;20278;-67
2023/03/24 05:42:56;;;;;;;9.88;2.45;;;;;;;11.04;73.75;99821.78;3605867;39;20062;-67
2023/03/24 05:45:23;;;;;;;7.32;2.40;;;;;;;11.06;73.87;99827.88;3610032;39;20394;-68
2023/03/24 05:47:50;;;;;;;10.48;2.80;;;;;;;11.08;74.16;99832.16;3604422;39;20066;-68
2023/03/24 05:50:16;;;;;;;7.78;2.00;;;;;;;11.05;74.12;99845.00;3607495;39;20079;-68
2023/03/24 05:52:42;;;;;;;10.18;2.60;;;;;;;11.06;74.20;99844.00;3606533;39;20416;-68
2023/03/24 05:55:08;;;;;;;8.38;2.33;;;;;;;11.05;73.33;99845.00;3604040;39;20059;-68
2023/03/24 05:57:35;;;;;;;8.48;2.42;;;;;;;11.08;73.63;99850.13;3605541;39;20367;-68
2023/03/24 06:00:06;;;;;;;7.05;2.28;;;;;;;10.88;73.68;99819.47;3604825;39;20394;-68
2023/03/24 06:02:33;;;;;;;9.90;2.63;;;;;;;11.06;73.60;99844.88;3610018;39;20038;-68
2023/03/24 06:05:00;;;;;;;13.77;2.95;;;;;;;11.12;73.12;99844.38;3608170;39;20466;-68
2023/03/24 06:07:29;;;;;;;11.10;2.25;;;;;;;11.10;73.00;99843.66;3609124;39;20120;-68
2023/03/24 06:10:01;;;;;;;8.88;2.30;;;;;;;11.12;72.55;99846.22;3604660;39;20051;-68
2023/03/24 06:12:29;;;;;;;11.43;2.22;;;;;;;11.17;72.78;99843.19;3604550;39;20052;-68
2023/03/24 06:14:56;;;;;;;10.35;2.15;;;;;;;11.21;72.68;99845.47;3604323;39;20326;-68
2023/03/24 06:17:23;;;;;;;8.88;2.25;;;;;;;11.27;71.70;99847.69;3605521;39;20112;-68
2023/03/24 06:19:50;;;;;;;9.02;2.13;;;;;;;11.37;71.26;99859.41;3604997;39;20067;-68
2023/03/24 06:22:17;;;;;;;7.68;2.10;;;;;;;11.48;70.54;99866.63;3606967;39;20460;-69
2023/03/24 06:24:43;;;;;;;10.18;2.35;;;;;;;11.55;69.86;99872.38;3608228;39;20389;-67
2023/03/24 06:27:10;;;;;;;7.63;1.90;;;;;;;11.58;69.82;99878.34;3606781;39;20047;-67
2023/03/24 06:29:37;;;;;;;8.25;2.33;;;;;;;11.61;69.84;99877.25;3606452;39;20434;-70
2023/03/24 06:32:04;;;;;;;11.45;1.83;;;;;;;10.96;69.66;99760.53;3609046;39;20062;-68
2023/03/24 06:34:31;;;;;;;10.40;2.45;;;;;;;11.68;69.32;99885.69;3613104;39;20049;-68
2023/03/24 06:36:56;;;;;;;15.07;5.50;;;;;;;11.46;69.61;99852.44;3596644;39;20043;-67
2023/03/24 06:39:22;;;;;;;34.40;18.77;;;;;;;11.42;69.50;99856.38;3606113;39;20047;-67
2023/03/24 06:41:48;;;;;;;16.75;2.95;;;;;;;11.57;70.70;99889.22;3606838;39;20144;-68
2023/03/24 06:44:14;;;;;;;8.90;2.53;;;;;;;11.57;70.44;99894.63;3613341;39;20058;-68
2023/03/24 06:46:40;;;;;;;9.60;2.13;;;;;;;11.60;71.08;99891.69;3609171;39;20062;-68
2023/03/24 06:49:06;;;;;;;7.18;2.17;;;;;;;11.53;70.17;99869.78;3605687;39;20087;-68
2023/03/24 06:51:32;;;;;;;11.80;2.60;;;;;;;11.72;69.79;99896.06;3606352;39;20362;-68
2023/03/24 06:53:58;;;;;;;11.30;2.33;;;;;;;11.82;69.56;99898.84;3609211;39;20047;-68
2023/03/24 06:56:24;;;;;;;11.10;2.83;;;;;;;11.92;69.91;99890.91;3613116;39;20062;-70
2023/03/24 06:58:50;;;;;;;31.48;15.60;;;;;;;12.03;69.40;99909.75;3607749;39;20424;-67
2023/03/24 07:01:16;;;;;;;49.28;31.27;;;;;;;12.05;69.30;99902.38;3611529;39;20292;-68
2023/03/24 07:03:42;;;;;;;7.22;2.42;;;;;;;12.12;68.82;99889.28;3609978;39;20061;-68
2023/03/24 07:06:08;;;;;;;10.80;2.53;;;;;;;12.15;68.55;99895.25;3605731;39;20051;-68
2023/03/24 07:08:35;;;;;;;11.52;2.40;;;;;;;12.18;68.19;99896.81;3609396;39;20055;-68
2023/03/24 07:11:02;;;;;;;13.00;2.60;;;;;;;12.29;68.83;99904.88;3607108;39;20055;-68
2023/03/24 07:13:28;;;;;;;14.18;2.28;;;;;;;12.32;68.65;99899.22;3604682;39;20411;-68
2023/03/24 07:15:54;;;;;;;9.60;2.20;;;;;;;12.37;67.90;99909.63;3604913;39;20061;-67
2023/03/24 07:18:20;;;;;;;11.35;2.17;;;;;;;12.43;67.01;99922.56;3610687;39;20078;-68
2023/03/24 07:20:46;;;;;;;14.02;2.67;;;;;;;12.57;67.58;99914.19;3607784;39;20059;-68
2023/03/24 07:23:12;;;;;;;10.35;2.58;;;;;;;12.70;67.28;99919.41;3611184;39;20069;-68
2023/03/24 07:25:41;;;;;;;12.90;2.10;;;;;;;12.88;67.20;99917.81;3610346;39;20058;-68
2023/03/24 07:28:07;;;;;;;21.13;10.95;;;;;;;12.99;65.62;99914.19;3604503;39;20382;-67
2023/03/24 07:30:35;;;;;;;9.02;3.38;;;;;;;13.15;65.53;99911.88;3606483;39;20368;-68
2023/03/24 07:33:04;;;;;;;9.88;2.40;;;;;;;13.26;65.54;99923.59;3605096;39;20386;-68
2023/03/24 07:35:29;;;;;;;10.05;2.55;;;;;;;13.42;65.02;99921.28;3598503;39;20373;-68
2023/03/24 07:38:00;;;;;;;8.82;2.45;;;;;;;13.46;64.40;99937.06;3609653;39;20094;-68
2023/03/24 07:40:26;;;;;;;10.00;2.92;;;;;;;13.28;64.72;99919.78;3609270;39;20054;-68
2023/03/24 07:42:52;;;;;;;12.60;2.92;;;;;;;13.29;65.05;99953.91;3606956;39;20054;-68
2023/03/24 07:45:18;;;;;;;7.10;2.05;;;;;;;13.19;65.38;99948.41;3605993;39;20047;-68
2023/03/24 07:47:45;;;;;;;8.65;2.50;;;;;;;13.15;65.66;99941.53;3606911;39;20070;-68
2023/03/24 07:50:13;;;;;;;10.48;2.65;;;;;;;13.20;65.95;99950.13;3610403;39;20117;-68
2023/03/24 07:52:42;;;;;;;9.10;2.28;;;;;;;13.36;65.84;99951.50;3604872;39;20305;-68
2023/03/24 07:55:10;;;;;;;11.35;2.60;;;;;;;13.46;65.16;99942.47;3606139;39;20055;-69
2023/03/24 07:57:39;;;;;;;9.32;3.17;;;;;;;13.50;64.70;99947.59;3610950;39;20424;-69
2023/03/24 08:00:14;;;;;;;8.38;2.25;;;;;;;13.46;65.31;99949.72;3614019;39;20085;-69
2023/03/24 08:02:41;;;;;;;13.30;2.92;;;;;;;13.52;64.96;99951.88;3607649;39;20054;-69
2023/03/24 08:05:12;;;;;;;10.38;2.38;;;;;;;13.54;65.17;99958.00;3615766;39;20042;-69
2023/03/24 08:07:41;;;;;;;9.43;2.60;;;;;;;13.73;65.55;99961.75;3610831;39;20046;-69
2023/03/24 08:10:14;;;;;;;10.02;2.55;;;;;;;13.99;63.04;99962.16;3610568;39;20089;-69
2023/03/24 08:12:40;;;;;;;11.45;2.75;;;;;;;14.08;62.76;99955.88;3596649;39;21809;-69
2023/03/24 08:15:08;;;;;;;10.20;2.47;;;;;;;14.06;62.78;99957.88;3612079;39;20050;-69
2023/03/24 08:17:35;;;;;;;10.02;2.55;;;;;;;13.79;63.20;99931.50;3613035;39;20047;-69
2023/03/24 08:20:13;;;;;;;10.45;2.33;;;;;;;13.77;62.72;99925.38;3613517;39;20055;-69
2023/03/24 08:22:41;;;;;;;11.82;2.90;;;;;;;14.08;62.81;99951.34;3611075;39;20348;-69
2023/03/24 08:25:10;;;;;;;12.55;2.80;;;;;;;14.70;60.77;99984.47;3609994;39;20057;-69
2023/03/24 08:27:38;;;;;;;9.57;2.40;;;;;;;14.92;59.63;99975.19;3610080;39;20067;-69
2023/03/24 08:30:09;;;;;;;7.43;2.03;;;;;;;15.14;58.00;99981.31;3608262;39;20297;-69
2023/03/24 08:32:36;;;;;;;8.82;2.47;;;;;;;15.10;57.82;99950.97;3608731;39;20373;-69
2023/03/24 08:35:03;;;;;;;8.60;2.38;;;;;;;15.47;57.13;99978.06;3608173;39;20051;-69
2023/03/24 08:37:30;;;;;;;10.85;4.22;;;;;;;15.64;55.74;99986.47;3609530;39;20119;-69
2023/03/24 08:39:57;;;;;;;9.95;2.53;;;;;;;15.50;55.95;99987.78;3610112;39;20309;-69
2023/03/24 08:42:24;;;;;;;6.47;2.50;;;;;;;15.52;56.81;99983.91;3611709;39;20108;-66
2023/03/24 08:44:51;;;;;;;10.57;2.70;;;;;;;15.45;56.65;99995.50;3607706;39;20381;-69
2023/03/24 08:47:16;;;;;;;11.25;2.83;;;;;;;15.33;56.70;100002.94;3609346;39;20119;-69
2023/03/24 08:49:42;;;;;;;10.20;2.70;;;;;;;15.19;55.88;99992.53;3607917;39;20104;-69
2023/03/24 08:52:08;;;;;;;8.32;2.50;;;;;;;14.27;57.35;99884.78;3605354;39;20074;-69
2023/03/24 08:54:33;;;;;;;9.85;2.33;;;;;;;14.81;57.17;99997.88;3608761;39;20065;-69
2023/03/24 08:56:59;;;;;;;8.18;2.50;;;;;;;14.56;57.85;100010.09;3606883;39;20071;-69
2023/03/24 08:59:24;;;;;;;8.25;2.25;;;;;;;14.29;58.53;99991.78;3607466;39;20051;-69
2023/03/24 09:01:50;;;;;;;8.93;2.30;;;;;;;14.22;60.00;100011.41;3609313;39;20270;-69
2023/03/24 09:04:16;;;;;;;12.13;2.78;;;;;;;14.13;60.17;100003.13;3608135;39;20047;-70
2023/03/24 09:06:42;;;;;;;10.52;3.10;;;;;;;14.07;60.57;100009.06;3606190;39;20066;-69
2023/03/24 09:09:07;;;;;;;12.73;2.42;;;;;;;14.04;60.12;100013.91;3608597;39;20059;-69
2023/03/24 09:11:33;;;;;;;11.45;2.70;;;;;;;14.07;60.58;100009.06;3605153;39;20054;-69
2023/03/24 09:13:59;;;;;;;9.13;2.38;;;;;;;14.13;60.01;100004.97;3609628;39;20374;-69
2023/03/24 09:16:25;;;;;;;11.57;2.70;;;;;;;13.96;59.84;99962.41;3609946;39;20050;-69
2023/03/24 09:18:51;;;;;;;10.52;2.92;;;;;;;14.23;60.07;100007.72;3607586;39;20059;-69
2023/03/24 09:21:16;;;;;;;10.07;3.00;;;;;;;14.26;59.56;100010.13;3609752;39;20061;-72
2023/03/24 09:23:43;;;;;;;10.27;2.60;;;;;;;14.21;59.86;100018.66;3601345;39;20109;-69
2023/03/24 09:26:08;;;;;;;9.95;2.20;;;;;;;14.02;59.79;99999.66;3611253;39;20055;-69
2023/03/24 09:28:34;;;;;;;10.27;2.50;;;;;;;14.09;59.94;100042.25;3609014;39;20061;-69
2023/03/24 09:31:04;;;;;;;8.60;3.30;;;;;;;14.09;60.26;100031.44;3608277;39;20055;-69
2023/03/24 09:33:33;;;;;;;8.00;2.13;;;;;;;14.19;60.71;100036.88;3607984;39;20058;-69
2023/03/24 09:36:01;;;;;;;10.18;2.53;;;;;;;14.56;60.38;100042.53;3608918;39;20047;-70
2023/03/24 09:38:29;;;;;;;11.13;2.53;;;;;;;14.66;59.74;100031.75;3610384;39;20300;-68
2023/03/24 09:41:02;;;;;;;7.22;2.58;;;;;;;14.68;59.74;100039.69;3610560;39;20054;-69
2023/03/24 09:43:42;;;;;;;7.18;2.20;;;;;;;14.59;59.13;100042.25;3609981;39;20059;-69
2023/03/24 09:46:27;;;;;;;11.43;2.55;;;;;;;14.51;59.64;100044.81;3608409;39;20070;-69
2023/03/24 09:48:58;;;;;;;9.60;2.30;;;;;;;14.43;60.67;100047.34;3609416;39;20058;-69
2023/03/24 09:51:27;;;;;;;12.85;2.97;;;;;;;14.36;60.35;100038.88;3609583;39;20379;-70
2023/03/24 09:54:21;;;;;;;9.40;2.15;;;;;;;14.20;60.59;100045.81;3609530;39;20077;-69
2023/03/24 09:56:50;;;;;;;7.72;2.40;;;;;;;14.30;60.30;100046.69;3612736;39;20061;-71
2023/03/24 09:59:33;;;;;;;11.07;2.72;;;;;;;14.33;60.74;100033.75;3612203;39;20364;-69
2023/03/24 10:01:59;;;;;;;11.80;2.28;;;;;;;14.35;60.43;100033.63;3609973;39;20308;-69
2023/03/24 10:04:28;;;;;;;8.40;2.30;;;;;;;14.22;60.53;100003.31;3610946;39;20067;-69
2023/03/24 10:07:30;;;;;;;10.48;2.35;;;;;;;14.43;59.90;100039.22;3609335;39;20383;-69
2023/03/24 10:09:59;;;;;;;9.95;2.03;;;;;;;14.48;59.15;100041.50;3612080;39;20043;-69
2023/03/24 10:12:42;;;;;;;10.93;2.22;;;;;;;14.33;59.23;100008.56;3609257;39;21965;-70
2023/03/24 10:15:37;;;;;;;7.78;1.90;;;;;;;14.52;57.99;100049.19;3607573;39;20063;-69
2023/03/24 10:18:18;;;;;;;6.97;1.85;;;;;;;14.50;57.26;100053.03;3610132;39;20046;-69
2023/03/24 10:21:12;;;;;;;12.40;2.60;;;;;;;14.49;57.03;100060.25;3600019;39;20066;-69
2023/03/24 10:24:04;;;;;;;6.97;1.90;;;;;;;14.49;57.08;100057.56;3599025;39;20449;-69
2023/03/24 10:27:05;;;;;;;11.25;2.22;;;;;;;14.45;56.18;100045.31;3608929;39;20337;-69
2023/03/24 10:29:37;;;;;;;5.63;1.90;;;;;;;14.57;57.39;100049.66;3611503;39;20116;-70
2023/03/24 10:32:18;;;;;;;5.90;2.17;;;;;;;14.80;56.23;100057.50;3609367;39;20359;-70
2023/03/24 10:34:51;;;;;;;13.48;3.65;;;;;;;15.29;56.08;100043.00;3609431;39;20067;-70
2023/03/24 10:37:17;;;;;;;;;;;;;;;15.73;54.46;100056.91;3610984;39;20055;-67
2023/03/24 10:39:43;;;;;;;7.57;2.08;;;;;;;15.80;52.50;100037.34;3609972;39;20016;-69
2023/03/24 10:42:17;;;;;;;8.23;1.90;;;;;;;15.77;52.37;100052.91;3611235;39;20055;-70
2023/03/24 10:44:47;;;;;;;6.95;2.10;;;;;;;15.59;53.20;100062.75;3608323;39;20060;-69
2023/03/24 10:47:28;;;;;;;6.50;2.08;;;;;;;15.42;53.14;100055.38;3610877;39;20489;-69
2023/03/24 10:50:01;;;;;;;5.88;1.88;;;;;;;15.35;54.60;100051.50;3610480;39;20121;-69
2023/03/24 10:52:38;;;;;;;11.02;2.50;;;;;;;15.34;54.39;100047.94;3607082;39;20103;-69
2023/03/24 10:55:06;;;;;;;9.65;2.53;;;;;;;15.25;54.57;100049.66;3607393;39;20581;-69
2023/03/24 10:57:33;;;;;;;7.85;1.88;;;;;;;15.25;54.95;100044.25;3611275;39;20373;-70
2023/03/24 11:00:10;;;;;;;6.88;2.10;;;;;;;15.28;54.56;100053.94;3609482;39;20062;-70
2023/03/24 11:02:36;;;;;;;13.23;2.25;;;;;;;15.64;53.68;100043.34;3608336;39;20058;-70
2023/03/24 11:05:22;;;;;;;8.90;2.10;;;;;;;15.82;52.68;100047.00;3610227;39;20051;-69
2023/03/24 11:07:50;;;;;;;6.93;1.92;;;;;;;15.49;52.87;100008.59;3609983;39;20497;-70
2023/03/24 11:10:26;;;;;;;6.53;2.05;;;;;;;15.75;52.90;100052.19;3602073;39;20051;-69
2023/03/24 11:12:52;;;;;;;11.55;2.70;;;;;;;15.74;53.29;100045.06;3608240;39;20062;-69
2023/03/24 11:15:29;;;;;;;6.88;2.22;;;;;;;15.81;53.06;100039.91;3610547;39;20054;-70
2023/03/24 11:18:00;;;;;;;8.48;2.42;;;;;;;15.89;53.82;100048.16;3611051;39;20063;-69
2023/03/24 11:20:49;;;;;;;6.10;1.75;;;;;;;15.87;51.97;100044.72;3608120;39;20120;-69
2023/03/24 11:23:31;;;;;;;5.78;1.77;;;;;;;15.89;51.08;100050.88;3609676;39;20371;-69
2023/03/24 11:26:18;;;;;;;5.88;1.73;;;;;;;15.94;50.35;100048.53;3613797;39;20124;-69
2023/03/24 11:28:59;;;;;;;5.97;1.70;;;;;;;15.78;50.56;100024.78;3611912;39;20071;-71
2023/03/24 11:31:30;;;;;;;5.78;1.60;;;;;;;15.84;51.04;100046.88;3609980;39;20338;-69
2023/03/24 11:34:01;;;;;;;8.32;1.90;;;;;;;15.57;51.17;100005.13;3613218;39;20059;-69
2023/03/24 11:36:30;;;;;;;5.25;1.52;;;;;;;15.69;52.06;100041.06;3612138;39;20329;-70
2023/03/24 11:39:10;;;;;;;6.47;1.80;;;;;;;15.50;51.51;100045.50;3612770;39;20043;-69
2023/03/24 11:41:41;;;;;;;7.60;1.92;;;;;;;15.32;52.59;100044.56;3611057;39;20051;-70
2023/03/24 11:44:21;;;;;;;9.52;2.45;;;;;;;14.97;56.18;100054.13;3612369;39;20128;-68
2023/03/24 11:46:56;;;;;;;8.93;2.08;;;;;;;14.57;58.76;100060.47;3613011;39;20051;-69
2023/03/24 11:49:30;;;;;;;9.50;2.28;;;;;;;14.06;62.28;100074.94;3612743;39;20058;-67
2023/03/24 11:51:56;;;;;;;9.00;2.40;;;;;;;13.63;65.82;100113.78;3611021;39;20066;-67
2023/03/24 11:54:32;;;;;;;5.68;1.80;;;;;;;13.14;67.86;100098.22;3612844;39;20047;-66
2023/03/24 11:57:12;;;;;;;6.03;2.08;;;;;;;12.76;71.44;100097.72;3613670;39;20047;-66